Weather at Exeter International Airport

Public forecast

Using degrees Celsius for public forecast. Weather courtesy of forecast.io.

Current aviation weather report (METAR) for Exeter International Airport

Report is more than 2 hours old.

Retrieved 2020/11/28 02:20 UTC (4 hours ago):

EGTE 280220Z VRB04KT 5000 RA BKN009 08/07 Q1012

Aviation forecast (TAF) for Exeter International Airport

Forecast is more than 12 hours old.

Retrieved 2012/04/19 12:15 UTC (9 years ago):

TAF TAF EGTE 191401Z 1912/1924 31016KT 9999 SCT030 SCT035 PROB40 TEMPO 1915/1918 7000 SHRA BKN014